KC4KQE Weather Reports


Display with metric or nautical units.
time (UTC)temp
F
wind
direction
speed
MPH
gust
MPH
rain 1hr
in
rain 24hr
in
rain mn
in
humidity
%
barometer
mb
20180522060929 76 173 3.0 3.0 0.00 0.00 0.00 21 1007.6
20180522060429 76 188 1.0 2.0 0.00 0.00 0.00 21 1007.5
20180522053929 75 5 1.0 1.0 0.00 0.00 0.00 21 1007.3
20180522051929 76 5 1.0 3.0 0.00 0.00 0.00 20 1007.1
20180522051429 76 5 1.0 2.0 0.00 0.00 0.00 21 1007.1
20180522045929 76 5 1.0 2.0 0.00 0.00 0.00 21 1007.1
20180522044929 77 5 0.0 2.0 0.00 0.00 0.00 21 1006.9
20180522041929 79 311 1.0 2.0 0.00 0.00 0.00 20 1006.5
20180522035929 81 311 3.0 4.0 0.00 0.00 0.00 18 1006.3
20180522025429 82 329 0.0 2.0 0.00 0.00 0.00 15 1005.5
20180522021429 86 311 4.0 6.0 0.00 0.00 0.00 12 1005.1
20180522013929 88 273 7.0 13.0 0.00 0.00 0.00 12 1004.8
20180522010929 92 237 13.0 19.0 0.00 0.00 0.00 9 1004.4
20180522005929 92 210 5.0 16.0 0.00 0.00 0.00 9 1004.4
20180521233929 95 238 13.0 17.0 0.00 0.00 0.00 7 1004.7
20180521231929 93 199 3.0 6.0 0.00 0.00 0.00 7 1004.8
20180521231429 94 272 6.0 10.0 0.00 0.00 0.00 6 1004.8
20180521230929 94 261 6.0 12.0 0.00 0.00 0.00 6 1004.9
20180521221429 93 200 11.0 14.0 0.00 0.00 0.00 5 1005.6
20180521213929 94 206 8.0 19.0 0.00 0.00 0.00 6 1005.9
20180521213429 93 188 8.0 15.0 0.00 0.00 0.00 6 1006.0
20180521211929 92 188 8.0 19.0 0.00 0.00 0.00 7 1006.2
20180521211429 94 228 6.0 14.0 0.00 0.00 0.00 7 1006.3
20180521210929 94 245 5.0 15.0 0.00 0.00 0.00 6 1006.3
20180521200929 91 149 5.0 11.0 0.00 0.00 0.00 10 1007.0
20180521191929 91 182 8.0 17.0 0.00 0.00 0.00 12 1007.6
20180521191429 91 219 11.0 17.0 0.00 0.00 0.00 12 1007.5
20180521183929 89 190 2.0 11.0 0.00 0.00 0.00 14 1007.9
20180521182929 89 267 5.0 13.0 0.00 0.00 0.00 13 1008.0
20180521180929 88 199 8.0 12.0 0.00 0.00 0.00 14 1008.1
20180521180429 88 236 8.0 12.0 0.00 0.00 0.00 14 1008.3
20180521175429 88 213 6.0 16.0 0.00 0.00 0.00 14 1008.3
20180521174429 88 245 6.0 12.0 0.00 0.00 0.00 15 1008.4
20180521164429 86 209 3.0 8.0 0.00 0.00 0.00 16 1008.7
20180521163429 85 201 4.0 9.0 0.00 0.00 0.00 16 1008.6
20180521160929 84 182 2.0 13.0 0.00 0.00 0.00 16 1008.8
20180521150929 82 196 3.0 6.0 0.00 0.00 0.00 17 1008.7
20180521140429 75 97 0.0 1.0 0.00 0.00 0.00 21 1008.7
20180521135429 72 106 0.0 0.0 0.00 0.00 0.00 22 1008.7
20180521133929 70 105 0.0 0.0 0.00 0.00 0.00 23 1008.6
20180521131929 66 105 1.0 3.0 0.00 0.00 0.00 24 1008.4
20180521130929 65 106 0.0 1.0 0.00 0.00 0.00 25 1008.4
20180521113929 66 106 0.0 1.0 0.00 0.00 0.00 21 1008.1
20180521105929 66 105 1.0 3.0 0.00 0.00 0.00 20 1008.3
20180521101429 70 106 0.0 0.0 0.00 0.00 0.00 17 1008.4
20180521085929 73 134 2.0 7.0 0.00 0.00 0.00 15 1008.4
20180521085429 73 115 5.0 7.0 0.00 0.00 0.00 15 1008.4
20180521075429 69 13 1.0 2.0 0.00 0.00 0.00 17 1008.4
20180521073929 70 13 0.0 0.0 0.00 0.00 0.00 16 1008.4
20180521071429 73 13 0.0 2.0 0.00 0.00 0.00 15 1008.2